sensor_id;sensor_type;location;lat;lon;timestamp;P1;durP1;ratioP1;P2;durP2;ratioP2
66830;SDS011;53739;44.224;22.528;2023-05-10T00:01:09;21.98;;;14.68;;
66830;SDS011;53739;44.224;22.528;2023-05-10T00:03:35;17.38;;;14.48;;
66830;SDS011;53739;44.224;22.528;2023-05-10T00:06:01;18.75;;;14.35;;
66830;SDS011;53739;44.224;22.528;2023-05-10T00:08:27;20.42;;;14.95;;
66830;SDS011;53739;44.224;22.528;2023-05-10T00:10:53;19.08;;;13.18;;
66830;SDS011;53739;44.224;22.528;2023-05-10T00:13:19;21.48;;;14.43;;
66830;SDS011;53739;44.224;22.528;2023-05-10T00:15:45;22.48;;;14.57;;
66830;SDS011;53739;44.224;22.528;2023-05-10T00:18:11;17.85;;;12.32;;
66830;SDS011;53739;44.224;22.528;2023-05-10T00:20:36;21.38;;;13.88;;
66830;SDS011;53739;44.224;22.528;2023-05-10T00:23:02;24.92;;;12.50;;
66830;SDS011;53739;44.224;22.528;2023-05-10T00:25:28;16.25;;;13.45;;
66830;SDS011;53739;44.224;22.528;2023-05-10T00:27:54;16.67;;;12.63;;
66830;SDS011;53739;44.224;22.528;2023-05-10T00:30:22;14.90;;;12.50;;
66830;SDS011;53739;44.224;22.528;2023-05-10T00:32:48;17.13;;;11.93;;
66830;SDS011;53739;44.224;22.528;2023-05-10T00:35:15;16.80;;;12.40;;
66830;SDS011;53739;44.224;22.528;2023-05-10T00:37:41;17.52;;;12.02;;
66830;SDS011;53739;44.224;22.528;2023-05-10T00:40:07;16.83;;;12.38;;
66830;SDS011;53739;44.224;22.528;2023-05-10T00:42:33;17.95;;;11.82;;
66830;SDS011;53739;44.224;22.528;2023-05-10T00:44:59;15.65;;;11.93;;
66830;SDS011;53739;44.224;22.528;2023-05-10T00:47:25;15.30;;;11.75;;
66830;SDS011;53739;44.224;22.528;2023-05-10T00:49:51;15.73;;;11.07;;
66830;SDS011;53739;44.224;22.528;2023-05-10T00:52:17;19.17;;;13.32;;
66830;SDS011;53739;44.224;22.528;2023-05-10T00:54:43;23.13;;;14.27;;
66830;SDS011;53739;44.224;22.528;2023-05-10T00:57:08;16.10;;;11.95;;
66830;SDS011;53739;44.224;22.528;2023-05-10T00:59:35;17.27;;;12.63;;
66830;SDS011;53739;44.224;22.528;2023-05-10T01:02:01;16.33;;;12.65;;
66830;SDS011;53739;44.224;22.528;2023-05-10T01:04:27;14.25;;;12.05;;
66830;SDS011;53739;44.224;22.528;2023-05-10T01:06:53;17.45;;;12.00;;
66830;SDS011;53739;44.224;22.528;2023-05-10T01:09:19;21.60;;;12.38;;
66830;SDS011;53739;44.224;22.528;2023-05-10T01:11:46;20.25;;;13.15;;
66830;SDS011;53739;44.224;22.528;2023-05-10T01:14:13;15.10;;;12.30;;
66830;SDS011;53739;44.224;22.528;2023-05-10T01:16:43;22.40;;;12.65;;
66830;SDS011;53739;44.224;22.528;2023-05-10T01:21:53;17.35;;;11.80;;
66830;SDS011;53739;44.224;22.528;2023-05-10T01:27:31;13.98;;;11.77;;
66830;SDS011;53739;44.224;22.528;2023-05-10T01:33:15;17.35;;;13.05;;
66830;SDS011;53739;44.224;22.528;2023-05-10T01:35:47;13.52;;;11.55;;
66830;SDS011;53739;44.224;22.528;2023-05-10T01:41:36;14.35;;;12.45;;
66830;SDS011;53739;44.224;22.528;2023-05-10T01:46:53;16.55;;;13.00;;
66830;SDS011;53739;44.224;22.528;2023-05-10T01:49:49;18.48;;;11.45;;
66830;SDS011;53739;44.224;22.528;2023-05-10T01:52:19;16.90;;;12.38;;
66830;SDS011;53739;44.224;22.528;2023-05-10T01:55:02;19.77;;;13.50;;
66830;SDS011;53739;44.224;22.528;2023-05-10T01:57:33;15.68;;;12.50;;
66830;SDS011;53739;44.224;22.528;2023-05-10T02:00:03;16.55;;;12.05;;
66830;SDS011;53739;44.224;22.528;2023-05-10T02:02:37;20.05;;;12.48;;
66830;SDS011;53739;44.224;22.528;2023-05-10T02:05:05;20.60;;;12.63;;
66830;SDS011;53739;44.224;22.528;2023-05-10T02:07:33;16.52;;;12.35;;
66830;SDS011;53739;44.224;22.528;2023-05-10T02:10:04;16.13;;;12.95;;
66830;SDS011;53739;44.224;22.528;2023-05-10T02:12:33;16.67;;;12.95;;
66830;SDS011;53739;44.224;22.528;2023-05-10T02:15:02;18.52;;;12.73;;
66830;SDS011;53739;44.224;22.528;2023-05-10T02:17:30;17.65;;;12.45;;
66830;SDS011;53739;44.224;22.528;2023-05-10T02:19:58;16.08;;;12.77;;
66830;SDS011;53739;44.224;22.528;2023-05-10T02:22:25;14.57;;;11.88;;
66830;SDS011;53739;44.224;22.528;2023-05-10T02:24:55;18.52;;;13.23;;
66830;SDS011;53739;44.224;22.528;2023-05-10T02:27:23;16.73;;;12.80;;
66830;SDS011;53739;44.224;22.528;2023-05-10T02:29:50;21.52;;;13.32;;
66830;SDS011;53739;44.224;22.528;2023-05-10T02:32:17;16.40;;;12.80;;
66830;SDS011;53739;44.224;22.528;2023-05-10T02:34:44;18.00;;;13.25;;
66830;SDS011;53739;44.224;22.528;2023-05-10T02:37:16;19.00;;;13.27;;
66830;SDS011;53739;44.224;22.528;2023-05-10T02:39:49;14.48;;;12.88;;
66830;SDS011;53739;44.224;22.528;2023-05-10T02:42:16;20.08;;;14.70;;
66830;SDS011;53739;44.224;22.528;2023-05-10T02:44:47;19.33;;;14.75;;
66830;SDS011;53739;44.224;22.528;2023-05-10T02:47:17;19.80;;;15.25;;
66830;SDS011;53739;44.224;22.528;2023-05-10T02:49:43;18.08;;;13.70;;
66830;SDS011;53739;44.224;22.528;2023-05-10T02:52:09;17.13;;;13.63;;
66830;SDS011;53739;44.224;22.528;2023-05-10T02:54:45;19.33;;;13.77;;
66830;SDS011;53739;44.224;22.528;2023-05-10T02:57:16;18.52;;;13.63;;
66830;SDS011;53739;44.224;22.528;2023-05-10T02:59:44;19.73;;;14.50;;
66830;SDS011;53739;44.224;22.528;2023-05-10T03:02:12;21.15;;;14.07;;
66830;SDS011;53739;44.224;22.528;2023-05-10T03:04:38;17.75;;;14.02;;
66830;SDS011;53739;44.224;22.528;2023-05-10T03:07:04;23.98;;;15.25;;
66830;SDS011;53739;44.224;22.528;2023-05-10T03:09:30;18.92;;;14.65;;
66830;SDS011;53739;44.224;22.528;2023-05-10T03:17:30;20.20;;;15.07;;
66830;SDS011;53739;44.224;22.528;2023-05-10T03:19:56;17.75;;;13.98;;
66830;SDS011;53739;44.224;22.528;2023-05-10T03:22:30;25.08;;;15.73;;
66830;SDS011;53739;44.224;22.528;2023-05-10T03:25:00;19.80;;;14.82;;
66830;SDS011;53739;44.224;22.528;2023-05-10T03:27:30;18.98;;;15.60;;
66830;SDS011;53739;44.224;22.528;2023-05-10T03:29:57;22.98;;;14.80;;
66830;SDS011;53739;44.224;22.528;2023-05-10T03:32:23;21.40;;;15.40;;
66830;SDS011;53739;44.224;22.528;2023-05-10T03:34:49;18.88;;;15.05;;
66830;SDS011;53739;44.224;22.528;2023-05-10T03:37:15;23.20;;;16.90;;
66830;SDS011;53739;44.224;22.528;2023-05-10T03:39:41;22.85;;;17.15;;
66830;SDS011;53739;44.224;22.528;2023-05-10T03:42:06;22.73;;;16.30;;
66830;SDS011;53739;44.224;22.528;2023-05-10T03:44:32;23.35;;;17.83;;
66830;SDS011;53739;44.224;22.528;2023-05-10T03:46:58;22.60;;;16.88;;
66830;SDS011;53739;44.224;22.528;2023-05-10T03:49:24;19.73;;;16.15;;
66830;SDS011;53739;44.224;22.528;2023-05-10T03:51:50;22.17;;;16.05;;
66830;SDS011;53739;44.224;22.528;2023-05-10T03:54:15;18.45;;;15.02;;
66830;SDS011;53739;44.224;22.528;2023-05-10T03:56:41;18.55;;;14.65;;
66830;SDS011;53739;44.224;22.528;2023-05-10T03:59:07;19.15;;;14.63;;
66830;SDS011;53739;44.224;22.528;2023-05-10T04:01:34;24.33;;;17.30;;
66830;SDS011;53739;44.224;22.528;2023-05-10T04:04:00;20.85;;;15.80;;
66830;SDS011;53739;44.224;22.528;2023-05-10T04:06:25;21.63;;;16.17;;
66830;SDS011;53739;44.224;22.528;2023-05-10T04:08:51;22.80;;;16.92;;
66830;SDS011;53739;44.224;22.528;2023-05-10T04:11:17;27.30;;;17.38;;
66830;SDS011;53739;44.224;22.528;2023-05-10T04:13:43;28.67;;;17.05;;
66830;SDS011;53739;44.224;22.528;2023-05-10T04:16:08;26.00;;;17.70;;
66830;SDS011;53739;44.224;22.528;2023-05-10T04:18:34;22.33;;;17.02;;
66830;SDS011;53739;44.224;22.528;2023-05-10T04:21:00;19.13;;;15.32;;
66830;SDS011;53739;44.224;22.528;2023-05-10T04:23:26;19.02;;;14.85;;
66830;SDS011;53739;44.224;22.528;2023-05-10T04:25:52;21.58;;;15.63;;
66830;SDS011;53739;44.224;22.528;2023-05-10T04:28:24;23.73;;;15.38;;
66830;SDS011;53739;44.224;22.528;2023-05-10T04:30:49;19.67;;;15.70;;
66830;SDS011;53739;44.224;22.528;2023-05-10T04:33:15;18.75;;;14.77;;
66830;SDS011;53739;44.224;22.528;2023-05-10T04:35:41;17.00;;;13.43;;
66830;SDS011;53739;44.224;22.528;2023-05-10T04:38:07;16.77;;;14.23;;
66830;SDS011;53739;44.224;22.528;2023-05-10T04:40:32;20.15;;;14.85;;
66830;SDS011;53739;44.224;22.528;2023-05-10T04:42:59;20.65;;;14.65;;
66830;SDS011;53739;44.224;22.528;2023-05-10T04:45:24;21.67;;;15.73;;
66830;SDS011;53739;44.224;22.528;2023-05-10T04:47:50;19.85;;;15.35;;
66830;SDS011;53739;44.224;22.528;2023-05-10T04:50:16;20.35;;;15.90;;
66830;SDS011;53739;44.224;22.528;2023-05-10T04:52:42;20.85;;;14.48;;
66830;SDS011;53739;44.224;22.528;2023-05-10T04:55:08;22.98;;;15.52;;
66830;SDS011;53739;44.224;22.528;2023-05-10T04:57:35;21.98;;;15.80;;
66830;SDS011;53739;44.224;22.528;2023-05-10T05:00:00;31.15;;;15.65;;
66830;SDS011;53739;44.224;22.528;2023-05-10T05:02:26;18.92;;;15.57;;
66830;SDS011;53739;44.224;22.528;2023-05-10T05:04:52;23.38;;;16.92;;
66830;SDS011;53739;44.224;22.528;2023-05-10T05:07:20;21.40;;;15.55;;
66830;SDS011;53739;44.224;22.528;2023-05-10T05:09:47;24.85;;;16.00;;
66830;SDS011;53739;44.224;22.528;2023-05-10T05:12:13;19.55;;;16.10;;
66830;SDS011;53739;44.224;22.528;2023-05-10T05:14:39;23.27;;;17.23;;
66830;SDS011;53739;44.224;22.528;2023-05-10T05:17:06;29.80;;;17.05;;
66830;SDS011;53739;44.224;22.528;2023-05-10T05:19:32;28.70;;;17.08;;
66830;SDS011;53739;44.224;22.528;2023-05-10T05:21:58;24.05;;;16.33;;
66830;SDS011;53739;44.224;22.528;2023-05-10T05:24:26;30.88;;;19.08;;
66830;SDS011;53739;44.224;22.528;2023-05-10T05:26:54;26.23;;;18.33;;
66830;SDS011;53739;44.224;22.528;2023-05-10T05:29:20;24.27;;;18.67;;
66830;SDS011;53739;44.224;22.528;2023-05-10T05:31:46;25.85;;;18.33;;
66830;SDS011;53739;44.224;22.528;2023-05-10T05:34:11;25.13;;;16.77;;
66830;SDS011;53739;44.224;22.528;2023-05-10T05:36:37;20.45;;;17.00;;
66830;SDS011;53739;44.224;22.528;2023-05-10T05:39:03;22.13;;;15.85;;
66830;SDS011;53739;44.224;22.528;2023-05-10T05:41:29;22.88;;;16.13;;
66830;SDS011;53739;44.224;22.528;2023-05-10T05:43:55;33.05;;;22.17;;
66830;SDS011;53739;44.224;22.528;2023-05-10T05:46:20;25.08;;;18.90;;
66830;SDS011;53739;44.224;22.528;2023-05-10T05:48:46;23.17;;;18.27;;
66830;SDS011;53739;44.224;22.528;2023-05-10T05:51:12;21.52;;;16.42;;
66830;SDS011;53739;44.224;22.528;2023-05-10T05:53:38;22.48;;;15.48;;
66830;SDS011;53739;44.224;22.528;2023-05-10T05:56:04;21.27;;;14.60;;
66830;SDS011;53739;44.224;22.528;2023-05-10T05:58:30;20.50;;;15.13;;
66830;SDS011;53739;44.224;22.528;2023-05-10T06:00:55;21.63;;;15.63;;
66830;SDS011;53739;44.224;22.528;2023-05-10T06:03:21;19.30;;;15.50;;
66830;SDS011;53739;44.224;22.528;2023-05-10T06:05:47;19.95;;;14.45;;
66830;SDS011;53739;44.224;22.528;2023-05-10T06:08:13;19.58;;;13.55;;
66830;SDS011;53739;44.224;22.528;2023-05-10T06:10:39;21.60;;;13.43;;
66830;SDS011;53739;44.224;22.528;2023-05-10T06:13:05;16.70;;;12.68;;
66830;SDS011;53739;44.224;22.528;2023-05-10T06:15:30;20.02;;;12.63;;
66830;SDS011;53739;44.224;22.528;2023-05-10T06:17:57;17.92;;;13.35;;
66830;SDS011;53739;44.224;22.528;2023-05-10T06:20:23;17.98;;;14.75;;
66830;SDS011;53739;44.224;22.528;2023-05-10T06:22:49;28.02;;;20.67;;
66830;SDS011;53739;44.224;22.528;2023-05-10T06:25:15;27.52;;;19.50;;
66830;SDS011;53739;44.224;22.528;2023-05-10T06:27:43;31.23;;;16.83;;
66830;SDS011;53739;44.224;22.528;2023-05-10T06:30:09;33.40;;;21.10;;
66830;SDS011;53739;44.224;22.528;2023-05-10T06:32:35;21.95;;;15.18;;
66830;SDS011;53739;44.224;22.528;2023-05-10T06:35:01;15.23;;;12.05;;
66830;SDS011;53739;44.224;22.528;2023-05-10T06:37:26;17.65;;;13.63;;
66830;SDS011;53739;44.224;22.528;2023-05-10T06:39:52;17.40;;;13.85;;
66830;SDS011;53739;44.224;22.528;2023-05-10T06:42:18;18.40;;;11.55;;
66830;SDS011;53739;44.224;22.528;2023-05-10T06:44:44;16.50;;;12.35;;
66830;SDS011;53739;44.224;22.528;2023-05-10T06:47:10;15.13;;;11.63;;
66830;SDS011;53739;44.224;22.528;2023-05-10T06:49:35;15.93;;;11.88;;
66830;SDS011;53739;44.224;22.528;2023-05-10T06:52:02;23.35;;;12.93;;
66830;SDS011;53739;44.224;22.528;2023-05-10T06:54:27;16.67;;;12.55;;
66830;SDS011;53739;44.224;22.528;2023-05-10T06:56:53;16.85;;;12.75;;
66830;SDS011;53739;44.224;22.528;2023-05-10T06:59:19;17.20;;;12.38;;
66830;SDS011;53739;44.224;22.528;2023-05-10T07:01:46;14.52;;;10.80;;
66830;SDS011;53739;44.224;22.528;2023-05-10T07:04:12;14.38;;;11.48;;
66830;SDS011;53739;44.224;22.528;2023-05-10T07:06:38;23.90;;;11.57;;
66830;SDS011;53739;44.224;22.528;2023-05-10T07:09:04;19.15;;;11.05;;
66830;SDS011;53739;44.224;22.528;2023-05-10T07:11:30;10.90;;;9.73;;
66830;SDS011;53739;44.224;22.528;2023-05-10T07:13:56;17.25;;;10.07;;
66830;SDS011;53739;44.224;22.528;2023-05-10T07:16:21;17.42;;;11.00;;
66830;SDS011;53739;44.224;22.528;2023-05-10T07:18:47;16.42;;;11.07;;
66830;SDS011;53739;44.224;22.528;2023-05-10T07:21:13;16.73;;;11.32;;
66830;SDS011;53739;44.224;22.528;2023-05-10T07:23:38;15.25;;;9.48;;
66830;SDS011;53739;44.224;22.528;2023-05-10T07:26:04;11.25;;;8.50;;
66830;SDS011;53739;44.224;22.528;2023-05-10T07:28:30;14.20;;;8.85;;
66830;SDS011;53739;44.224;22.528;2023-05-10T07:30:56;15.30;;;9.02;;
66830;SDS011;53739;44.224;22.528;2023-05-10T07:33:22;19.13;;;10.15;;
66830;SDS011;53739;44.224;22.528;2023-05-10T07:35:47;19.58;;;12.48;;
66830;SDS011;53739;44.224;22.528;2023-05-10T07:38:14;19.48;;;11.90;;
66830;SDS011;53739;44.224;22.528;2023-05-10T07:40:40;20.02;;;11.50;;
66830;SDS011;53739;44.224;22.528;2023-05-10T07:43:06;14.82;;;9.93;;
66830;SDS011;53739;44.224;22.528;2023-05-10T07:45:32;21.10;;;12.05;;
66830;SDS011;53739;44.224;22.528;2023-05-10T07:47:58;17.30;;;11.48;;
66830;SDS011;53739;44.224;22.528;2023-05-10T07:50:24;17.98;;;11.98;;
66830;SDS011;53739;44.224;22.528;2023-05-10T07:52:51;12.52;;;9.15;;
66830;SDS011;53739;44.224;22.528;2023-05-10T07:55:18;18.48;;;10.30;;
66830;SDS011;53739;44.224;22.528;2023-05-10T07:57:44;14.55;;;10.32;;
66830;SDS011;53739;44.224;22.528;2023-05-10T08:00:12;14.40;;;8.40;;
66830;SDS011;53739;44.224;22.528;2023-05-10T08:02:38;14.88;;;9.55;;
66830;SDS011;53739;44.224;22.528;2023-05-10T08:05:04;16.00;;;7.97;;
66830;SDS011;53739;44.224;22.528;2023-05-10T08:07:30;11.48;;;7.60;;
66830;SDS011;53739;44.224;22.528;2023-05-10T08:09:56;12.90;;;8.07;;
66830;SDS011;53739;44.224;22.528;2023-05-10T08:12:22;17.85;;;9.00;;
66830;SDS011;53739;44.224;22.528;2023-05-10T08:14:48;15.13;;;8.68;;
66830;SDS011;53739;44.224;22.528;2023-05-10T08:17:13;23.88;;;15.88;;
66830;SDS011;53739;44.224;22.528;2023-05-10T08:19:39;16.02;;;11.80;;
66830;SDS011;53739;44.224;22.528;2023-05-10T08:22:05;13.60;;;10.02;;
66830;SDS011;53739;44.224;22.528;2023-05-10T08:24:31;14.27;;;8.88;;
66830;SDS011;53739;44.224;22.528;2023-05-10T08:26:57;11.73;;;8.88;;
66830;SDS011;53739;44.224;22.528;2023-05-10T08:29:23;16.52;;;8.52;;
66830;SDS011;53739;44.224;22.528;2023-05-10T08:31:49;15.63;;;8.30;;
66830;SDS011;53739;44.224;22.528;2023-05-10T08:34:14;15.00;;;7.35;;
66830;SDS011;53739;44.224;22.528;2023-05-10T08:36:40;12.90;;;8.07;;
66830;SDS011;53739;44.224;22.528;2023-05-10T08:39:06;9.45;;;7.07;;
66830;SDS011;53739;44.224;22.528;2023-05-10T08:41:33;16.25;;;10.25;;
66830;SDS011;53739;44.224;22.528;2023-05-10T08:43:59;18.60;;;12.88;;
66830;SDS011;53739;44.224;22.528;2023-05-10T08:46:29;16.83;;;11.07;;
66830;SDS011;53739;44.224;22.528;2023-05-10T08:48:59;21.33;;;12.38;;
66830;SDS011;53739;44.224;22.528;2023-05-10T08:51:29;21.25;;;12.82;;
66830;SDS011;53739;44.224;22.528;2023-05-10T08:54:00;22.23;;;14.63;;
66830;SDS011;53739;44.224;22.528;2023-05-10T08:56:27;15.88;;;10.05;;
66830;SDS011;53739;44.224;22.528;2023-05-10T08:58:53;20.35;;;12.88;;
66830;SDS011;53739;44.224;22.528;2023-05-10T09:01:20;15.20;;;9.13;;
66830;SDS011;53739;44.224;22.528;2023-05-10T09:03:47;17.60;;;7.85;;
66830;SDS011;53739;44.224;22.528;2023-05-10T09:06:13;18.25;;;11.25;;
66830;SDS011;53739;44.224;22.528;2023-05-10T09:08:39;18.95;;;9.32;;
66830;SDS011;53739;44.224;22.528;2023-05-10T09:11:08;13.38;;;9.23;;
66830;SDS011;53739;44.224;22.528;2023-05-10T09:13:35;12.27;;;9.60;;
66830;SDS011;53739;44.224;22.528;2023-05-10T09:16:02;14.77;;;10.30;;
66830;SDS011;53739;44.224;22.528;2023-05-10T09:18:28;10.65;;;9.05;;
66830;SDS011;53739;44.224;22.528;2023-05-10T09:20:54;11.45;;;8.02;;
66830;SDS011;53739;44.224;22.528;2023-05-10T09:23:20;18.42;;;9.65;;
66830;SDS011;53739;44.224;22.528;2023-05-10T09:25:46;20.08;;;11.23;;
66830;SDS011;53739;44.224;22.528;2023-05-10T09:28:12;14.23;;;10.00;;
66830;SDS011;53739;44.224;22.528;2023-05-10T09:30:38;18.10;;;9.48;;
66830;SDS011;53739;44.224;22.528;2023-05-10T09:33:04;15.88;;;10.43;;
66830;SDS011;53739;44.224;22.528;2023-05-10T09:35:31;13.65;;;9.73;;
66830;SDS011;53739;44.224;22.528;2023-05-10T09:38:04;13.65;;;7.90;;
66830;SDS011;53739;44.224;22.528;2023-05-10T09:40:30;10.63;;;6.65;;
66830;SDS011;53739;44.224;22.528;2023-05-10T09:43:00;9.60;;;7.40;;
66830;SDS011;53739;44.224;22.528;2023-05-10T09:45:29;15.27;;;9.40;;
66830;SDS011;53739;44.224;22.528;2023-05-10T09:47:56;10.02;;;7.53;;
66830;SDS011;53739;44.224;22.528;2023-05-10T09:50:23;10.45;;;6.97;;
66830;SDS011;53739;44.224;22.528;2023-05-10T09:52:53;15.20;;;7.25;;
66830;SDS011;53739;44.224;22.528;2023-05-10T09:55:40;11.27;;;7.53;;
66830;SDS011;53739;44.224;22.528;2023-05-10T09:58:09;13.40;;;7.75;;
66830;SDS011;53739;44.224;22.528;2023-05-10T10:00:42;12.43;;;7.80;;
66830;SDS011;53739;44.224;22.528;2023-05-10T10:03:13;14.15;;;8.32;;
66830;SDS011;53739;44.224;22.528;2023-05-10T10:05:40;11.77;;;7.05;;
66830;SDS011;53739;44.224;22.528;2023-05-10T10:08:10;10.77;;;6.15;;
66830;SDS011;53739;44.224;22.528;2023-05-10T10:10:37;12.18;;;7.47;;
66830;SDS011;53739;44.224;22.528;2023-05-10T10:13:05;10.52;;;7.35;;
66830;SDS011;53739;44.224;22.528;2023-05-10T10:15:32;22.67;;;11.13;;
66830;SDS011;53739;44.224;22.528;2023-05-10T10:17:58;15.30;;;9.68;;
66830;SDS011;53739;44.224;22.528;2023-05-10T10:20:25;23.30;;;11.35;;
66830;SDS011;53739;44.224;22.528;2023-05-10T10:22:52;15.52;;;9.38;;
66830;SDS011;53739;44.224;22.528;2023-05-10T10:25:18;18.13;;;11.02;;
66830;SDS011;53739;44.224;22.528;2023-05-10T10:30:34;16.08;;;8.70;;
66830;SDS011;53739;44.224;22.528;2023-05-10T10:35:37;9.20;;;6.47;;
66830;SDS011;53739;44.224;22.528;2023-05-10T10:38:07;12.18;;;7.60;;
66830;SDS011;53739;44.224;22.528;2023-05-10T10:40:36;10.95;;;6.13;;
66830;SDS011;53739;44.224;22.528;2023-05-10T10:46:14;15.32;;;6.65;;
66830;SDS011;53739;44.224;22.528;2023-05-10T10:48:47;9.95;;;6.10;;
66830;SDS011;53739;44.224;22.528;2023-05-10T10:51:13;12.07;;;6.63;;
66830;SDS011;53739;44.224;22.528;2023-05-10T10:53:40;11.05;;;6.60;;
66830;SDS011;53739;44.224;22.528;2023-05-10T10:56:07;11.80;;;6.20;;
66830;SDS011;53739;44.224;22.528;2023-05-10T10:58:34;11.77;;;7.63;;
66830;SDS011;53739;44.224;22.528;2023-05-10T11:01:10;8.95;;;6.75;;
66830;SDS011;53739;44.224;22.528;2023-05-10T11:03:37;9.45;;;6.72;;
66830;SDS011;53739;44.224;22.528;2023-05-10T11:06:03;9.13;;;6.75;;
66830;SDS011;53739;44.224;22.528;2023-05-10T11:08:32;15.35;;;7.30;;
66830;SDS011;53739;44.224;22.528;2023-05-10T11:13:28;14.05;;;8.90;;
66830;SDS011;53739;44.224;22.528;2023-05-10T11:15:55;13.68;;;7.97;;
66830;SDS011;53739;44.224;22.528;2023-05-10T11:18:29;22.45;;;8.75;;
66830;SDS011;53739;44.224;22.528;2023-05-10T11:20:59;11.43;;;7.95;;
66830;SDS011;53739;44.224;22.528;2023-05-10T11:26:09;10.10;;;6.63;;
66830;SDS011;53739;44.224;22.528;2023-05-10T11:28:45;10.55;;;7.82;;
66830;SDS011;53739;44.224;22.528;2023-05-10T11:31:16;10.45;;;6.85;;
66830;SDS011;53739;44.224;22.528;2023-05-10T11:33:45;14.38;;;8.02;;
66830;SDS011;53739;44.224;22.528;2023-05-10T11:36:15;13.68;;;8.07;;
66830;SDS011;53739;44.224;22.528;2023-05-10T11:38:41;9.88;;;5.80;;
66830;SDS011;53739;44.224;22.528;2023-05-10T11:41:08;8.73;;;5.88;;
66830;SDS011;53739;44.224;22.528;2023-05-10T11:43:41;9.13;;;5.45;;
66830;SDS011;53739;44.224;22.528;2023-05-10T11:46:08;10.15;;;5.53;;
66830;SDS011;53739;44.224;22.528;2023-05-10T11:48:35;9.18;;;5.28;;
66830;SDS011;53739;44.224;22.528;2023-05-10T11:51:01;14.65;;;6.97;;
66830;SDS011;53739;44.224;22.528;2023-05-10T11:53:31;9.35;;;6.30;;
66830;SDS011;53739;44.224;22.528;2023-05-10T11:56:08;7.60;;;4.85;;
66830;SDS011;53739;44.224;22.528;2023-05-10T11:58:34;11.85;;;5.90;;
66830;SDS011;53739;44.224;22.528;2023-05-10T12:01:01;12.20;;;5.72;;
66830;SDS011;53739;44.224;22.528;2023-05-10T12:03:27;10.20;;;7.55;;
66830;SDS011;53739;44.224;22.528;2023-05-10T12:05:54;15.63;;;7.93;;
66830;SDS011;53739;44.224;22.528;2023-05-10T12:08:25;12.40;;;6.72;;
66830;SDS011;53739;44.224;22.528;2023-05-10T12:10:52;12.07;;;7.05;;
66830;SDS011;53739;44.224;22.528;2023-05-10T12:13:19;17.60;;;7.45;;
66830;SDS011;53739;44.224;22.528;2023-05-10T12:15:46;11.35;;;7.45;;
66830;SDS011;53739;44.224;22.528;2023-05-10T12:18:12;10.68;;;7.03;;
66830;SDS011;53739;44.224;22.528;2023-05-10T12:20:39;8.13;;;6.00;;
66830;SDS011;53739;44.224;22.528;2023-05-10T12:23:05;11.93;;;7.82;;
66830;SDS011;53739;44.224;22.528;2023-05-10T12:25:39;13.57;;;8.23;;
66830;SDS011;53739;44.224;22.528;2023-05-10T12:28:06;9.77;;;5.15;;
66830;SDS011;53739;44.224;22.528;2023-05-10T12:30:33;10.38;;;7.18;;
66830;SDS011;53739;44.224;22.528;2023-05-10T12:33:00;11.38;;;6.80;;
66830;SDS011;53739;44.224;22.528;2023-05-10T12:35:29;13.35;;;8.27;;
66830;SDS011;53739;44.224;22.528;2023-05-10T12:37:55;15.15;;;7.47;;
66830;SDS011;53739;44.224;22.528;2023-05-10T12:40:24;43.22;;;30.13;;
66830;SDS011;53739;44.224;22.528;2023-05-10T12:42:50;73.22;;;56.28;;
66830;SDS011;53739;44.224;22.528;2023-05-10T12:45:17;25.67;;;19.95;;
66830;SDS011;53739;44.224;22.528;2023-05-10T12:47:43;11.05;;;7.47;;
66830;SDS011;53739;44.224;22.528;2023-05-10T12:50:10;8.48;;;6.10;;
66830;SDS011;53739;44.224;22.528;2023-05-10T12:52:36;11.40;;;5.95;;
66830;SDS011;53739;44.224;22.528;2023-05-10T12:55:02;8.23;;;5.30;;
66830;SDS011;53739;44.224;22.528;2023-05-10T12:57:28;8.60;;;5.43;;
66830;SDS011;53739;44.224;22.528;2023-05-10T12:59:55;12.35;;;8.43;;
66830;SDS011;53739;44.224;22.528;2023-05-10T13:02:21;10.43;;;8.15;;
66830;SDS011;53739;44.224;22.528;2023-05-10T13:04:48;13.20;;;8.05;;
66830;SDS011;53739;44.224;22.528;2023-05-10T13:07:14;14.90;;;11.27;;
66830;SDS011;53739;44.224;22.528;2023-05-10T13:09:40;14.43;;;9.82;;
66830;SDS011;53739;44.224;22.528;2023-05-10T13:12:06;10.40;;;5.03;;
66830;SDS011;53739;44.224;22.528;2023-05-10T13:14:32;11.68;;;5.25;;
66830;SDS011;53739;44.224;22.528;2023-05-10T13:16:58;12.80;;;6.60;;
66830;SDS011;53739;44.224;22.528;2023-05-10T13:19:24;8.43;;;5.70;;
66830;SDS011;53739;44.224;22.528;2023-05-10T13:21:50;10.48;;;4.50;;
66830;SDS011;53739;44.224;22.528;2023-05-10T13:24:16;10.95;;;4.70;;
66830;SDS011;53739;44.224;22.528;2023-05-10T13:26:42;9.60;;;5.00;;
66830;SDS011;53739;44.224;22.528;2023-05-10T13:29:08;9.48;;;5.60;;
66830;SDS011;53739;44.224;22.528;2023-05-10T13:31:34;9.48;;;5.65;;
66830;SDS011;53739;44.224;22.528;2023-05-10T13:34:01;6.78;;;4.82;;
66830;SDS011;53739;44.224;22.528;2023-05-10T13:36:27;9.25;;;5.68;;
66830;SDS011;53739;44.224;22.528;2023-05-10T13:38:53;8.60;;;5.25;;
66830;SDS011;53739;44.224;22.528;2023-05-10T13:41:19;11.50;;;7.90;;
66830;SDS011;53739;44.224;22.528;2023-05-10T13:43:45;8.80;;;5.68;;
66830;SDS011;53739;44.224;22.528;2023-05-10T13:46:10;8.32;;;4.97;;
66830;SDS011;53739;44.224;22.528;2023-05-10T13:48:36;9.07;;;5.80;;
66830;SDS011;53739;44.224;22.528;2023-05-10T13:51:02;8.63;;;5.10;;
66830;SDS011;53739;44.224;22.528;2023-05-10T13:53:28;11.90;;;6.78;;
66830;SDS011;53739;44.224;22.528;2023-05-10T13:55:54;12.23;;;6.05;;
66830;SDS011;53739;44.224;22.528;2023-05-10T13:58:20;8.10;;;5.10;;
66830;SDS011;53739;44.224;22.528;2023-05-10T14:00:47;9.90;;;8.38;;
66830;SDS011;53739;44.224;22.528;2023-05-10T14:03:13;13.80;;;7.20;;
66830;SDS011;53739;44.224;22.528;2023-05-10T14:05:39;12.05;;;7.53;;
66830;SDS011;53739;44.224;22.528;2023-05-10T14:08:05;12.20;;;7.60;;
66830;SDS011;53739;44.224;22.528;2023-05-10T14:10:34;14.02;;;9.18;;
66830;SDS011;53739;44.224;22.528;2023-05-10T14:13:00;9.07;;;5.75;;
66830;SDS011;53739;44.224;22.528;2023-05-10T14:15:26;9.00;;;5.30;;
66830;SDS011;53739;44.224;22.528;2023-05-10T14:17:52;7.38;;;5.50;;
66830;SDS011;53739;44.224;22.528;2023-05-10T14:20:18;22.88;;;11.10;;
66830;SDS011;53739;44.224;22.528;2023-05-10T14:22:44;13.50;;;8.65;;
66830;SDS011;53739;44.224;22.528;2023-05-10T14:25:10;8.02;;;5.60;;
66830;SDS011;53739;44.224;22.528;2023-05-10T14:27:36;9.80;;;5.88;;
66830;SDS011;53739;44.224;22.528;2023-05-10T14:30:03;13.32;;;8.63;;
66830;SDS011;53739;44.224;22.528;2023-05-10T14:32:29;11.75;;;8.05;;
66830;SDS011;53739;44.224;22.528;2023-05-10T14:34:57;11.90;;;8.50;;
66830;SDS011;53739;44.224;22.528;2023-05-10T14:37:23;11.02;;;7.78;;
66830;SDS011;53739;44.224;22.528;2023-05-10T14:39:49;22.60;;;13.88;;
66830;SDS011;53739;44.224;22.528;2023-05-10T14:42:15;14.65;;;9.13;;
66830;SDS011;53739;44.224;22.528;2023-05-10T14:44:41;14.82;;;10.95;;
66830;SDS011;53739;44.224;22.528;2023-05-10T14:47:07;13.25;;;8.73;;
66830;SDS011;53739;44.224;22.528;2023-05-10T14:49:34;15.80;;;9.13;;